sensor_id;sensor_type;location;lat;lon;timestamp;temperature;humidity
51811;DHT22;52468;40.116;18.296;2022-08-19T00:02:17;27.30;59.40
51811;DHT22;52468;40.116;18.296;2022-08-19T00:04:45;27.30;59.60
51811;DHT22;52468;40.116;18.296;2022-08-19T00:07:15;27.30;59.70
51811;DHT22;52468;40.116;18.296;2022-08-19T00:09:43;27.30;59.90
51811;DHT22;52468;40.116;18.296;2022-08-19T00:12:12;27.30;60.00
51811;DHT22;52468;40.116;18.296;2022-08-19T00:14:41;27.30;60.00
51811;DHT22;52468;40.116;18.296;2022-08-19T00:17:09;27.30;60.10
51811;DHT22;52468;40.116;18.296;2022-08-19T00:19:37;27.20;60.20
51811;DHT22;52468;40.116;18.296;2022-08-19T00:22:06;27.20;60.20
51811;DHT22;52468;40.116;18.296;2022-08-19T00:24:35;27.10;60.30
51811;DHT22;52468;40.116;18.296;2022-08-19T00:27:05;27.10;60.70
51811;DHT22;52468;40.116;18.296;2022-08-19T00:29:33;27.00;61.30
51811;DHT22;52468;40.116;18.296;2022-08-19T00:32:02;27.00;61.40
51811;DHT22;52468;40.116;18.296;2022-08-19T00:34:30;27.00;61.40
51811;DHT22;52468;40.116;18.296;2022-08-19T00:36:58;27.10;61.30
51811;DHT22;52468;40.116;18.296;2022-08-19T00:39:26;27.10;61.40
51811;DHT22;52468;40.116;18.296;2022-08-19T00:41:54;27.10;61.50
51811;DHT22;52468;40.116;18.296;2022-08-19T00:44:25;27.10;61.60
51811;DHT22;52468;40.116;18.296;2022-08-19T00:46:55;27.00;61.70
51811;DHT22;52468;40.116;18.296;2022-08-19T00:49:34;27.00;61.60
51811;DHT22;52468;40.116;18.296;2022-08-19T00:52:15;27.10;61.40
51811;DHT22;52468;40.116;18.296;2022-08-19T00:54:45;27.10;61.20
51811;DHT22;52468;40.116;18.296;2022-08-19T00:57:17;27.00;61.20
51811;DHT22;52468;40.116;18.296;2022-08-19T00:59:48;27.00;61.20
51811;DHT22;52468;40.116;18.296;2022-08-19T01:02:19;27.00;61.10
51811;DHT22;52468;40.116;18.296;2022-08-19T01:04:47;27.10;61.10
51811;DHT22;52468;40.116;18.296;2022-08-19T01:07:15;27.10;61.00
51811;DHT22;52468;40.116;18.296;2022-08-19T01:09:44;27.10;61.10
51811;DHT22;52468;40.116;18.296;2022-08-19T01:12:12;27.00;61.10
51811;DHT22;52468;40.116;18.296;2022-08-19T01:14:40;27.00;61.20
51811;DHT22;52468;40.116;18.296;2022-08-19T01:17:09;27.00;61.20
51811;DHT22;52468;40.116;18.296;2022-08-19T01:19:40;27.00;61.30
51811;DHT22;52468;40.116;18.296;2022-08-19T01:25:00;26.90;61.20
51811;DHT22;52468;40.116;18.296;2022-08-19T01:27:40;26.90;61.00
51811;DHT22;52468;40.116;18.296;2022-08-19T01:30:10;26.90;60.80
51811;DHT22;52468;40.116;18.296;2022-08-19T01:32:38;26.90;60.70
51811;DHT22;52468;40.116;18.296;2022-08-19T01:35:07;26.90;60.60
51811;DHT22;52468;40.116;18.296;2022-08-19T01:37:52;26.90;60.40
51811;DHT22;52468;40.116;18.296;2022-08-19T01:40:23;27.00;60.40
51811;DHT22;52468;40.116;18.296;2022-08-19T01:42:52;26.90;60.80
51811;DHT22;52468;40.116;18.296;2022-08-19T01:45:23;27.00;61.00
51811;DHT22;52468;40.116;18.296;2022-08-19T01:47:51;26.90;61.30
51811;DHT22;52468;40.116;18.296;2022-08-19T01:50:19;26.80;61.60
51811;DHT22;52468;40.116;18.296;2022-08-19T01:52:47;26.80;61.60
51811;DHT22;52468;40.116;18.296;2022-08-19T01:55:17;26.80;61.60
51811;DHT22;52468;40.116;18.296;2022-08-19T01:57:52;26.80;61.60
51811;DHT22;52468;40.116;18.296;2022-08-19T02:00:23;26.70;61.80
51811;DHT22;52468;40.116;18.296;2022-08-19T02:02:52;26.80;61.70
51811;DHT22;52468;40.116;18.296;2022-08-19T02:05:19;26.70;61.70
51811;DHT22;52468;40.116;18.296;2022-08-19T02:07:49;26.70;61.50
51811;DHT22;52468;40.116;18.296;2022-08-19T02:10:20;26.70;61.40
51811;DHT22;52468;40.116;18.296;2022-08-19T02:12:49;26.60;61.40
51811;DHT22;52468;40.116;18.296;2022-08-19T02:15:18;26.60;61.40
51811;DHT22;52468;40.116;18.296;2022-08-19T02:17:47;26.50;61.40
51811;DHT22;52468;40.116;18.296;2022-08-19T02:20:16;26.50;61.50
51811;DHT22;52468;40.116;18.296;2022-08-19T02:22:44;26.60;61.50
51811;DHT22;52468;40.116;18.296;2022-08-19T02:25:13;26.50;61.50
51811;DHT22;52468;40.116;18.296;2022-08-19T02:27:42;26.50;61.70
51811;DHT22;52468;40.116;18.296;2022-08-19T02:30:13;26.50;61.80
51811;DHT22;52468;40.116;18.296;2022-08-19T02:32:43;26.50;62.00
51811;DHT22;52468;40.116;18.296;2022-08-19T02:35:12;26.50;62.30
51811;DHT22;52468;40.116;18.296;2022-08-19T02:37:41;26.50;62.50
51811;DHT22;52468;40.116;18.296;2022-08-19T02:40:29;26.50;62.90
51811;DHT22;52468;40.116;18.296;2022-08-19T02:42:57;26.40;63.30
51811;DHT22;52468;40.116;18.296;2022-08-19T02:45:25;26.40;63.50
51811;DHT22;52468;40.116;18.296;2022-08-19T02:47:53;26.30;63.70
51811;DHT22;52468;40.116;18.296;2022-08-19T02:50:21;26.30;63.90
51811;DHT22;52468;40.116;18.296;2022-08-19T02:52:49;26.30;64.10
51811;DHT22;52468;40.116;18.296;2022-08-19T02:55:16;26.30;64.40
51811;DHT22;52468;40.116;18.296;2022-08-19T02:57:44;26.30;64.50
51811;DHT22;52468;40.116;18.296;2022-08-19T03:00:12;26.30;64.60
51811;DHT22;52468;40.116;18.296;2022-08-19T03:02:41;26.40;64.60
51811;DHT22;52468;40.116;18.296;2022-08-19T03:05:09;26.40;64.70
51811;DHT22;52468;40.116;18.296;2022-08-19T03:07:37;26.50;64.60
51811;DHT22;52468;40.116;18.296;2022-08-19T03:10:06;26.50;64.50
51811;DHT22;52468;40.116;18.296;2022-08-19T03:12:38;26.50;64.50
51811;DHT22;52468;40.116;18.296;2022-08-19T03:15:07;26.50;64.40
51811;DHT22;52468;40.116;18.296;2022-08-19T03:17:35;26.50;64.50
51811;DHT22;52468;40.116;18.296;2022-08-19T03:20:04;26.50;64.40
51811;DHT22;52468;40.116;18.296;2022-08-19T03:22:41;26.40;64.50
51811;DHT22;52468;40.116;18.296;2022-08-19T03:25:09;26.40;64.40
51811;DHT22;52468;40.116;18.296;2022-08-19T03:27:37;26.30;64.20
51811;DHT22;52468;40.116;18.296;2022-08-19T03:30:05;26.30;64.30
51811;DHT22;52468;40.116;18.296;2022-08-19T03:32:34;26.30;64.10
51811;DHT22;52468;40.116;18.296;2022-08-19T03:35:02;26.30;63.80
51811;DHT22;52468;40.116;18.296;2022-08-19T03:37:30;26.20;63.80
51811;DHT22;52468;40.116;18.296;2022-08-19T03:39:58;26.10;63.90
51811;DHT22;52468;40.116;18.296;2022-08-19T03:42:25;26.10;63.90
51811;DHT22;52468;40.116;18.296;2022-08-19T03:44:54;26.10;63.80
51811;DHT22;52468;40.116;18.296;2022-08-19T03:47:22;26.10;63.80
51811;DHT22;52468;40.116;18.296;2022-08-19T03:49:50;26.00;64.00
51811;DHT22;52468;40.116;18.296;2022-08-19T03:52:17;26.00;64.10
51811;DHT22;52468;40.116;18.296;2022-08-19T03:54:45;26.00;64.10
51811;DHT22;52468;40.116;18.296;2022-08-19T03:57:13;25.90;64.10
51811;DHT22;52468;40.116;18.296;2022-08-19T03:59:41;25.90;64.30
51811;DHT22;52468;40.116;18.296;2022-08-19T04:02:11;25.90;64.30
51811;DHT22;52468;40.116;18.296;2022-08-19T04:04:40;25.80;64.40
51811;DHT22;52468;40.116;18.296;2022-08-19T04:07:09;25.80;64.50
51811;DHT22;52468;40.116;18.296;2022-08-19T04:09:37;25.90;64.70
51811;DHT22;52468;40.116;18.296;2022-08-19T04:12:05;25.80;65.10
51811;DHT22;52468;40.116;18.296;2022-08-19T04:14:34;25.90;65.20
51811;DHT22;52468;40.116;18.296;2022-08-19T04:17:03;25.90;65.40
51811;DHT22;52468;40.116;18.296;2022-08-19T04:19:35;25.90;65.70
51811;DHT22;52468;40.116;18.296;2022-08-19T04:22:04;26.00;65.80
51811;DHT22;52468;40.116;18.296;2022-08-19T04:24:33;26.00;65.70
51811;DHT22;52468;40.116;18.296;2022-08-19T04:27:02;26.00;65.70
51811;DHT22;52468;40.116;18.296;2022-08-19T04:29:30;26.10;65.70
51811;DHT22;52468;40.116;18.296;2022-08-19T04:31:58;26.20;65.70
51811;DHT22;52468;40.116;18.296;2022-08-19T04:34:28;26.30;66.00
51811;DHT22;52468;40.116;18.296;2022-08-19T04:36:58;26.30;66.20
51811;DHT22;52468;40.116;18.296;2022-08-19T04:39:29;26.40;66.40
51811;DHT22;52468;40.116;18.296;2022-08-19T04:42:18;26.50;66.40
51811;DHT22;52468;40.116;18.296;2022-08-19T04:45:07;26.60;66.60
51811;DHT22;52468;40.116;18.296;2022-08-19T04:47:38;26.80;66.50
51811;DHT22;52468;40.116;18.296;2022-08-19T04:50:07;26.80;66.70
51811;DHT22;52468;40.116;18.296;2022-08-19T04:52:36;27.00;66.60
51811;DHT22;52468;40.116;18.296;2022-08-19T04:55:05;27.10;66.60
51811;DHT22;52468;40.116;18.296;2022-08-19T04:57:34;27.30;66.30
51811;DHT22;52468;40.116;18.296;2022-08-19T05:00:02;27.50;66.00
51811;DHT22;52468;40.116;18.296;2022-08-19T05:02:30;27.60;66.10
51811;DHT22;52468;40.116;18.296;2022-08-19T05:04:58;27.70;65.90
51811;DHT22;52468;40.116;18.296;2022-08-19T05:07:27;27.90;65.90
51811;DHT22;52468;40.116;18.296;2022-08-19T05:09:56;28.00;65.50
51811;DHT22;52468;40.116;18.296;2022-08-19T05:12:26;28.20;65.30
51811;DHT22;52468;40.116;18.296;2022-08-19T05:14:57;28.40;65.10
51811;DHT22;52468;40.116;18.296;2022-08-19T05:17:26;28.50;65.10
51811;DHT22;52468;40.116;18.296;2022-08-19T05:19:55;28.70;65.00
51811;DHT22;52468;40.116;18.296;2022-08-19T05:22:43;28.90;64.90
51811;DHT22;52468;40.116;18.296;2022-08-19T05:25:16;29.00;65.00
51811;DHT22;52468;40.116;18.296;2022-08-19T05:27:47;29.00;65.20
51811;DHT22;52468;40.116;18.296;2022-08-19T05:30:15;29.20;65.10
51811;DHT22;52468;40.116;18.296;2022-08-19T05:32:43;29.30;65.30
51811;DHT22;52468;40.116;18.296;2022-08-19T05:35:11;29.40;65.30
51811;DHT22;52468;40.116;18.296;2022-08-19T05:37:40;29.50;65.30
51811;DHT22;52468;40.116;18.296;2022-08-19T05:40:08;29.60;65.30
51811;DHT22;52468;40.116;18.296;2022-08-19T05:42:37;29.90;65.10
51811;DHT22;52468;40.116;18.296;2022-08-19T05:45:05;29.90;65.20
51811;DHT22;52468;40.116;18.296;2022-08-19T05:47:34;30.10;65.20
51811;DHT22;52468;40.116;18.296;2022-08-19T05:50:03;30.20;65.30
51811;DHT22;52468;40.116;18.296;2022-08-19T05:52:31;30.40;65.20
51811;DHT22;52468;40.116;18.296;2022-08-19T05:54:59;30.70;64.70
51811;DHT22;52468;40.116;18.296;2022-08-19T05:57:27;30.80;64.50
51811;DHT22;52468;40.116;18.296;2022-08-19T05:59:57;31.10;63.90
51811;DHT22;52468;40.116;18.296;2022-08-19T06:02:26;31.20;63.80
51811;DHT22;52468;40.116;18.296;2022-08-19T06:04:55;31.20;64.00
51811;DHT22;52468;40.116;18.296;2022-08-19T06:07:22;31.20;64.00
51811;DHT22;52468;40.116;18.296;2022-08-19T06:09:50;31.30;63.60
51811;DHT22;52468;40.116;18.296;2022-08-19T06:12:18;31.50;63.40
51811;DHT22;52468;40.116;18.296;2022-08-19T06:14:46;31.60;63.10
51811;DHT22;52468;40.116;18.296;2022-08-19T06:17:14;31.70;62.80
51811;DHT22;52468;40.116;18.296;2022-08-19T06:19:42;31.90;62.10
51811;DHT22;52468;40.116;18.296;2022-08-19T06:22:11;32.10;61.50
51811;DHT22;52468;40.116;18.296;2022-08-19T06:24:40;32.20;61.00
51811;DHT22;52468;40.116;18.296;2022-08-19T06:27:09;32.40;60.40
51811;DHT22;52468;40.116;18.296;2022-08-19T06:29:38;32.50;60.30
51811;DHT22;52468;40.116;18.296;2022-08-19T06:32:05;32.60;59.60
51811;DHT22;52468;40.116;18.296;2022-08-19T06:34:34;32.80;58.30
51811;DHT22;52468;40.116;18.296;2022-08-19T06:37:03;32.70;58.10
51811;DHT22;52468;40.116;18.296;2022-08-19T06:39:37;32.90;57.80
51811;DHT22;52468;40.116;18.296;2022-08-19T06:42:06;33.00;57.20
51811;DHT22;52468;40.116;18.296;2022-08-19T06:44:38;33.10;57.00
51811;DHT22;52468;40.116;18.296;2022-08-19T06:47:08;33.20;56.00
51811;DHT22;52468;40.116;18.296;2022-08-19T06:49:36;33.40;55.70
51811;DHT22;52468;40.116;18.296;2022-08-19T06:52:05;33.40;55.50
51811;DHT22;52468;40.116;18.296;2022-08-19T06:54:33;33.50;55.50
51811;DHT22;52468;40.116;18.296;2022-08-19T06:57:01;33.70;54.80
51811;DHT22;52468;40.116;18.296;2022-08-19T06:59:31;33.80;54.50
51811;DHT22;52468;40.116;18.296;2022-08-19T07:02:03;34.00;54.10
51811;DHT22;52468;40.116;18.296;2022-08-19T07:04:35;34.00;53.90
51811;DHT22;52468;40.116;18.296;2022-08-19T07:07:06;34.20;53.40
51811;DHT22;52468;40.116;18.296;2022-08-19T07:09:38;34.30;53.20
51811;DHT22;52468;40.116;18.296;2022-08-19T07:12:08;34.50;52.50
51811;DHT22;52468;40.116;18.296;2022-08-19T07:14:38;34.50;52.30
51811;DHT22;52468;40.116;18.296;2022-08-19T07:17:09;34.70;51.50
51811;DHT22;52468;40.116;18.296;2022-08-19T07:19:38;34.80;50.80
51811;DHT22;52468;40.116;18.296;2022-08-19T07:22:09;34.90;49.60
51811;DHT22;52468;40.116;18.296;2022-08-19T07:24:38;35.00;49.60
51811;DHT22;52468;40.116;18.296;2022-08-19T07:27:06;35.10;49.40
51811;DHT22;52468;40.116;18.296;2022-08-19T07:29:36;35.30;49.00
51811;DHT22;52468;40.116;18.296;2022-08-19T07:32:04;35.50;48.60
51811;DHT22;52468;40.116;18.296;2022-08-19T07:34:34;35.80;48.10
51811;DHT22;52468;40.116;18.296;2022-08-19T07:37:05;35.90;47.20
51811;DHT22;52468;40.116;18.296;2022-08-19T07:39:36;36.00;45.80
51811;DHT22;52468;40.116;18.296;2022-08-19T07:42:08;36.10;45.60
51811;DHT22;52468;40.116;18.296;2022-08-19T07:44:37;36.20;45.40
51811;DHT22;52468;40.116;18.296;2022-08-19T07:47:10;36.40;45.10
51811;DHT22;52468;40.116;18.296;2022-08-19T07:49:38;36.50;44.40
51811;DHT22;52468;40.116;18.296;2022-08-19T07:52:07;36.70;42.20
51811;DHT22;52468;40.116;18.296;2022-08-19T07:54:38;36.60;42.30
51811;DHT22;52468;40.116;18.296;2022-08-19T07:57:07;36.60;41.90
51811;DHT22;52468;40.116;18.296;2022-08-19T07:59:35;36.70;42.20
51811;DHT22;52468;40.116;18.296;2022-08-19T08:02:04;36.70;42.20
51811;DHT22;52468;40.116;18.296;2022-08-19T08:04:32;36.90;41.50
51811;DHT22;52468;40.116;18.296;2022-08-19T08:07:19;37.00;41.20
51811;DHT22;52468;40.116;18.296;2022-08-19T08:10:06;37.00;40.90
51811;DHT22;52468;40.116;18.296;2022-08-19T08:12:39;37.10;40.60
51811;DHT22;52468;40.116;18.296;2022-08-19T08:15:13;37.10;40.50
51811;DHT22;52468;40.116;18.296;2022-08-19T08:17:45;37.20;40.60
51811;DHT22;52468;40.116;18.296;2022-08-19T08:20:13;37.40;40.00
51811;DHT22;52468;40.116;18.296;2022-08-19T08:22:46;37.40;39.50
51811;DHT22;52468;40.116;18.296;2022-08-19T08:25:34;37.40;39.30
51811;DHT22;52468;40.116;18.296;2022-08-19T08:28:04;37.50;39.10
51811;DHT22;52468;40.116;18.296;2022-08-19T08:30:32;37.80;38.20
51811;DHT22;52468;40.116;18.296;2022-08-19T08:33:02;37.90;37.90
51811;DHT22;52468;40.116;18.296;2022-08-19T08:35:30;38.00;38.10
51811;DHT22;52468;40.116;18.296;2022-08-19T08:37:58;38.40;37.40
51811;DHT22;52468;40.116;18.296;2022-08-19T08:40:42;38.50;37.40
51811;DHT22;52468;40.116;18.296;2022-08-19T08:43:29;38.70;37.10
51811;DHT22;52468;40.116;18.296;2022-08-19T08:46:13;38.80;35.90
51811;DHT22;52468;40.116;18.296;2022-08-19T08:51:43;38.90;35.70
51811;DHT22;52468;40.116;18.296;2022-08-19T08:54:13;38.90;35.70
51811;DHT22;52468;40.116;18.296;2022-08-19T08:56:43;38.90;35.70
51811;DHT22;52468;40.116;18.296;2022-08-19T08:59:31;38.90;36.70
51811;DHT22;52468;40.116;18.296;2022-08-19T09:02:00;38.70;38.00
51811;DHT22;52468;40.116;18.296;2022-08-19T09:04:29;38.50;38.70
51811;DHT22;52468;40.116;18.296;2022-08-19T09:07:34;38.50;38.80
51811;DHT22;52468;40.116;18.296;2022-08-19T09:10:27;38.40;39.20
51811;DHT22;52468;40.116;18.296;2022-08-19T09:15:55;38.30;40.00
51811;DHT22;52468;40.116;18.296;2022-08-19T09:18:24;38.10;41.60
51811;DHT22;52468;40.116;18.296;2022-08-19T09:20:52;37.90;43.30
51811;DHT22;52468;40.116;18.296;2022-08-19T09:23:20;37.70;44.60
51811;DHT22;52468;40.116;18.296;2022-08-19T09:25:49;37.60;45.10
51811;DHT22;52468;40.116;18.296;2022-08-19T09:28:17;37.70;44.50
51811;DHT22;52468;40.116;18.296;2022-08-19T09:30:45;38.00;42.90
51811;DHT22;52468;40.116;18.296;2022-08-19T09:33:12;38.10;42.90
51811;DHT22;52468;40.116;18.296;2022-08-19T09:35:40;38.00;43.60
51811;DHT22;52468;40.116;18.296;2022-08-19T09:38:08;37.80;43.50
51811;DHT22;52468;40.116;18.296;2022-08-19T09:40:36;38.00;44.20
51811;DHT22;52468;40.116;18.296;2022-08-19T09:43:04;38.10;44.50
51811;DHT22;52468;40.116;18.296;2022-08-19T09:45:33;38.20;44.90
51811;DHT22;52468;40.116;18.296;2022-08-19T09:48:02;38.30;44.80
51811;DHT22;52468;40.116;18.296;2022-08-19T09:50:30;38.30;44.40
51811;DHT22;52468;40.116;18.296;2022-08-19T09:53:03;38.40;44.90
51811;DHT22;52468;40.116;18.296;2022-08-19T09:55:31;38.40;44.80
51811;DHT22;52468;40.116;18.296;2022-08-19T09:58:02;38.30;43.80
51811;DHT22;52468;40.116;18.296;2022-08-19T10:00:30;38.20;43.60
51811;DHT22;52468;40.116;18.296;2022-08-19T10:02:58;38.30;43.60
51811;DHT22;52468;40.116;18.296;2022-08-19T10:05:26;38.30;44.00
51811;DHT22;52468;40.116;18.296;2022-08-19T10:08:17;38.50;42.90
51811;DHT22;52468;40.116;18.296;2022-08-19T10:10:46;38.70;42.40
51811;DHT22;52468;40.116;18.296;2022-08-19T10:13:18;38.90;40.90
51811;DHT22;52468;40.116;18.296;2022-08-19T10:15:48;39.00;41.30
51811;DHT22;52468;40.116;18.296;2022-08-19T10:18:19;38.80;42.00
51811;DHT22;52468;40.116;18.296;2022-08-19T10:20:49;39.00;41.40
51811;DHT22;52468;40.116;18.296;2022-08-19T10:23:20;39.00;40.00
51811;DHT22;52468;40.116;18.296;2022-08-19T10:25:49;39.10;39.30
51811;DHT22;52468;40.116;18.296;2022-08-19T10:28:17;39.10;39.10
51811;DHT22;52468;40.116;18.296;2022-08-19T10:30:45;39.00;39.40
51811;DHT22;52468;40.116;18.296;2022-08-19T10:33:13;39.20;38.50
51811;DHT22;52468;40.116;18.296;2022-08-19T10:35:42;39.50;37.80
51811;DHT22;52468;40.116;18.296;2022-08-19T10:38:10;39.80;37.00
51811;DHT22;52468;40.116;18.296;2022-08-19T10:40:38;40.00;37.30
51811;DHT22;52468;40.116;18.296;2022-08-19T10:43:06;40.20;37.20
51811;DHT22;52468;40.116;18.296;2022-08-19T10:45:34;40.00;37.00
51811;DHT22;52468;40.116;18.296;2022-08-19T10:48:02;40.10;36.80
51811;DHT22;52468;40.116;18.296;2022-08-19T10:50:30;39.80;37.30
51811;DHT22;52468;40.116;18.296;2022-08-19T10:53:16;40.00;36.80
51811;DHT22;52468;40.116;18.296;2022-08-19T10:55:44;40.00;36.60
51811;DHT22;52468;40.116;18.296;2022-08-19T10:58:30;40.10;36.40
51811;DHT22;52468;40.116;18.296;2022-08-19T11:00:58;40.50;35.10
51811;DHT22;52468;40.116;18.296;2022-08-19T11:03:27;40.90;33.90
51811;DHT22;52468;40.116;18.296;2022-08-19T11:06:03;41.20;33.10
51811;DHT22;52468;40.116;18.296;2022-08-19T11:08:33;41.60;32.10
51811;DHT22;52468;40.116;18.296;2022-08-19T11:11:02;41.80;32.00
51811;DHT22;52468;40.116;18.296;2022-08-19T11:13:33;42.00;32.20
51811;DHT22;52468;40.116;18.296;2022-08-19T11:16:06;42.10;32.30
51811;DHT22;52468;40.116;18.296;2022-08-19T11:18:40;41.80;32.70
51811;DHT22;52468;40.116;18.296;2022-08-19T11:21:32;42.00;32.30
51811;DHT22;52468;40.116;18.296;2022-08-19T11:24:04;42.10;31.70
51811;DHT22;52468;40.116;18.296;2022-08-19T11:26:34;42.50;31.30
51811;DHT22;52468;40.116;18.296;2022-08-19T11:29:04;42.60;30.30
51811;DHT22;52468;40.116;18.296;2022-08-19T11:31:34;42.60;29.50
51811;DHT22;52468;40.116;18.296;2022-08-19T11:34:08;42.30;30.10
51811;DHT22;52468;40.116;18.296;2022-08-19T11:36:39;42.90;29.60
51811;DHT22;52468;40.116;18.296;2022-08-19T11:39:09;43.20;29.00
51811;DHT22;52468;40.116;18.296;2022-08-19T11:41:37;43.50;28.20
51811;DHT22;52468;40.116;18.296;2022-08-19T11:44:04;44.00;27.80
51811;DHT22;52468;40.116;18.296;2022-08-19T11:46:36;44.40;27.10
51811;DHT22;52468;40.116;18.296;2022-08-19T11:49:05;45.00;26.00
51811;DHT22;52468;40.116;18.296;2022-08-19T11:51:35;45.40;25.50
51811;DHT22;52468;40.116;18.296;2022-08-19T11:54:05;45.40;25.50
51811;DHT22;52468;40.116;18.296;2022-08-19T11:56:33;45.30;25.60
51811;DHT22;52468;40.116;18.296;2022-08-19T11:59:01;45.00;25.40
51811;DHT22;52468;40.116;18.296;2022-08-19T12:01:29;44.90;25.60
51811;DHT22;52468;40.116;18.296;2022-08-19T12:03:58;44.80;25.30
51811;DHT22;52468;40.116;18.296;2022-08-19T12:06:30;44.70;25.80
51811;DHT22;52468;40.116;18.296;2022-08-19T12:09:03;44.60;26.20
51811;DHT22;52468;40.116;18.296;2022-08-19T12:11:31;44.60;26.50
51811;DHT22;52468;40.116;18.296;2022-08-19T12:13:59;44.60;27.20
51811;DHT22;52468;40.116;18.296;2022-08-19T12:16:30;44.50;27.70
51811;DHT22;52468;40.116;18.296;2022-08-19T12:18:59;44.30;27.50
51811;DHT22;52468;40.116;18.296;2022-08-19T12:21:34;44.20;27.50
51811;DHT22;52468;40.116;18.296;2022-08-19T12:24:03;44.20;27.50
51811;DHT22;52468;40.116;18.296;2022-08-19T12:26:32;44.20;27.50
51811;DHT22;52468;40.116;18.296;2022-08-19T12:29:00;44.30;28.00
51811;DHT22;52468;40.116;18.296;2022-08-19T12:31:28;44.40;28.30
51811;DHT22;52468;40.116;18.296;2022-08-19T12:33:57;44.30;28.90
51811;DHT22;52468;40.116;18.296;2022-08-19T12:36:25;44.20;29.30
51811;DHT22;52468;40.116;18.296;2022-08-19T12:38:53;44.10;29.70
51811;DHT22;52468;40.116;18.296;2022-08-19T12:41:25;44.40;29.90
51811;DHT22;52468;40.116;18.296;2022-08-19T12:43:53;44.40;30.50
51811;DHT22;52468;40.116;18.296;2022-08-19T12:46:21;44.50;31.20
51811;DHT22;52468;40.116;18.296;2022-08-19T12:48:49;44.50;31.30
51811;DHT22;52468;40.116;18.296;2022-08-19T12:51:18;44.60;30.80
51811;DHT22;52468;40.116;18.296;2022-08-19T12:53:49;44.60;30.60
51811;DHT22;52468;40.116;18.296;2022-08-19T12:56:17;44.90;29.20
51811;DHT22;52468;40.116;18.296;2022-08-19T12:58:48;45.00;27.70
51811;DHT22;52468;40.116;18.296;2022-08-19T13:01:17;45.10;27.80
51811;DHT22;52468;40.116;18.296;2022-08-19T13:03:46;45.00;27.60
51811;DHT22;52468;40.116;18.296;2022-08-19T13:06:14;45.00;27.10
51811;DHT22;52468;40.116;18.296;2022-08-19T13:08:43;45.00;26.90
51811;DHT22;52468;40.116;18.296;2022-08-19T13:11:13;45.30;26.90
51811;DHT22;52468;40.116;18.296;2022-08-19T13:13:43;45.70;25.90
51811;DHT22;52468;40.116;18.296;2022-08-19T13:16:12;46.00;25.50
51811;DHT22;52468;40.116;18.296;2022-08-19T13:18:41;46.20;24.90
51811;DHT22;52468;40.116;18.296;2022-08-19T13:21:10;46.40;25.00
51811;DHT22;52468;40.116;18.296;2022-08-19T13:23:42;46.10;25.40
51811;DHT22;52468;40.116;18.296;2022-08-19T13:26:12;45.80;26.00
51811;DHT22;52468;40.116;18.296;2022-08-19T13:28:41;45.60;26.60
51811;DHT22;52468;40.116;18.296;2022-08-19T13:31:29;45.50;27.10
51811;DHT22;52468;40.116;18.296;2022-08-19T13:34:18;45.10;27.90
51811;DHT22;52468;40.116;18.296;2022-08-19T13:36:46;44.30;29.50
51811;DHT22;52468;40.116;18.296;2022-08-19T13:39:14;43.60;31.20
51811;DHT22;52468;40.116;18.296;2022-08-19T13:41:46;42.90;32.40
51811;DHT22;52468;40.116;18.296;2022-08-19T13:44:16;42.30;33.60
51811;DHT22;52468;40.116;18.296;2022-08-19T13:46:47;42.00;34.50
51811;DHT22;52468;40.116;18.296;2022-08-19T13:49:16;41.60;34.80
51811;DHT22;52468;40.116;18.296;2022-08-19T13:51:44;41.00;35.80
51811;DHT22;52468;40.116;18.296;2022-08-19T13:54:12;40.80;36.90
51811;DHT22;52468;40.116;18.296;2022-08-19T13:56:45;40.50;37.80
51811;DHT22;52468;40.116;18.296;2022-08-19T13:59:13;40.00;38.90
51811;DHT22;52468;40.116;18.296;2022-08-19T14:01:41;39.70;39.60
51811;DHT22;52468;40.116;18.296;2022-08-19T14:04:09;39.60;40.00
51811;DHT22;52468;40.116;18.296;2022-08-19T14:06:37;39.30;40.70
51811;DHT22;52468;40.116;18.296;2022-08-19T14:09:05;39.10;41.30
51811;DHT22;52468;40.116;18.296;2022-08-19T14:11:33;39.30;41.30
51811;DHT22;52468;40.116;18.296;2022-08-19T14:14:01;39.30;41.60
51811;DHT22;52468;40.116;18.296;2022-08-19T14:16:28;39.50;41.80
51811;DHT22;52468;40.116;18.296;2022-08-19T14:18:57;39.30;41.80
51811;DHT22;52468;40.116;18.296;2022-08-19T14:21:25;39.20;41.80
51811;DHT22;52468;40.116;18.296;2022-08-19T14:23:53;39.10;42.20
51811;DHT22;52468;40.116;18.296;2022-08-19T14:26:22;39.00;42.40
51811;DHT22;52468;40.116;18.296;2022-08-19T14:28:50;38.90;42.70
51811;DHT22;52468;40.116;18.296;2022-08-19T14:31:19;38.90;42.60
51811;DHT22;52468;40.116;18.296;2022-08-19T14:33:49;38.90;42.80
51811;DHT22;52468;40.116;18.296;2022-08-19T14:36:18;38.80;42.70
51811;DHT22;52468;40.116;18.296;2022-08-19T14:38:47;38.80;43.00
51811;DHT22;52468;40.116;18.296;2022-08-19T14:41:18;38.60;44.30
51811;DHT22;52468;40.116;18.296;2022-08-19T14:43:49;38.30;46.90
51811;DHT22;52468;40.116;18.296;2022-08-19T14:46:21;37.80;49.60
51811;DHT22;52468;40.116;18.296;2022-08-19T14:48:49;37.20;51.20
51811;DHT22;52468;40.116;18.296;2022-08-19T14:51:18;36.90;52.60
51811;DHT22;52468;40.116;18.296;2022-08-19T14:53:47;36.40;54.00
51811;DHT22;52468;40.116;18.296;2022-08-19T14:56:21;36.20;54.90
51811;DHT22;52468;40.116;18.296;2022-08-19T14:58:49;35.90;56.10
51811;DHT22;52468;40.116;18.296;2022-08-19T15:01:22;35.60;56.70
51811;DHT22;52468;40.116;18.296;2022-08-19T15:03:50;35.40;57.60
51811;DHT22;52468;40.116;18.296;2022-08-19T15:06:24;35.20;58.40
51811;DHT22;52468;40.116;18.296;2022-08-19T15:08:53;35.10;58.70
51811;DHT22;52468;40.116;18.296;2022-08-19T15:11:23;35.10;58.70
51811;DHT22;52468;40.116;18.296;2022-08-19T15:13:52;35.00;59.10
51811;DHT22;52468;40.116;18.296;2022-08-19T15:16:20;35.00;59.20
51811;DHT22;52468;40.116;18.296;2022-08-19T15:18:51;34.80;59.50
51811;DHT22;52468;40.116;18.296;2022-08-19T15:21:19;34.60;60.10
51811;DHT22;52468;40.116;18.296;2022-08-19T15:23:49;34.50;60.40
51811;DHT22;52468;40.116;18.296;2022-08-19T15:26:18;34.40;60.70
51811;DHT22;52468;40.116;18.296;2022-08-19T15:28:47;34.10;61.40
51811;DHT22;52468;40.116;18.296;2022-08-19T15:31:17;34.00;62.00
51811;DHT22;52468;40.116;18.296;2022-08-19T15:33:46;34.00;62.00
51811;DHT22;52468;40.116;18.296;2022-08-19T15:36:14;34.00;62.20
51811;DHT22;52468;40.116;18.296;2022-08-19T15:38:43;34.00;62.10
51811;DHT22;52468;40.116;18.296;2022-08-19T15:41:22;34.00;62.20
51811;DHT22;52468;40.116;18.296;2022-08-19T15:43:53;33.90;62.40